sensor_id;sensor_type;location;lat;lon;timestamp;P1;durP1;ratioP1;P2;durP2;ratioP2
50126;SDS011;36024;47.974;16.398;2023-03-23T00:02:04;8.03;;;7.23;;
50126;SDS011;36024;47.974;16.398;2023-03-23T00:04:32;7.73;;;7.03;;
50126;SDS011;36024;47.974;16.398;2023-03-23T00:07:00;8.90;;;7.37;;
50126;SDS011;36024;47.974;16.398;2023-03-23T00:09:28;8.07;;;7.00;;
50126;SDS011;36024;47.974;16.398;2023-03-23T00:11:57;9.77;;;7.20;;
50126;SDS011;36024;47.974;16.398;2023-03-23T00:14:31;8.67;;;6.80;;
50126;SDS011;36024;47.974;16.398;2023-03-23T00:17:09;10.47;;;6.93;;
50126;SDS011;36024;47.974;16.398;2023-03-23T00:19:39;8.53;;;7.10;;
50126;SDS011;36024;47.974;16.398;2023-03-23T00:22:17;7.80;;;7.00;;
50126;SDS011;36024;47.974;16.398;2023-03-23T00:24:44;9.00;;;7.13;;
50126;SDS011;36024;47.974;16.398;2023-03-23T00:27:15;9.30;;;6.97;;
50126;SDS011;36024;47.974;16.398;2023-03-23T00:29:45;8.53;;;5.23;;
50126;SDS011;36024;47.974;16.398;2023-03-23T00:32:11;6.80;;;6.10;;
50126;SDS011;36024;47.974;16.398;2023-03-23T00:34:39;7.37;;;6.33;;
50126;SDS011;36024;47.974;16.398;2023-03-23T00:37:10;7.73;;;6.33;;
50126;SDS011;36024;47.974;16.398;2023-03-23T00:39:38;6.57;;;5.83;;
50126;SDS011;36024;47.974;16.398;2023-03-23T00:42:04;6.90;;;6.20;;
50126;SDS011;36024;47.974;16.398;2023-03-23T00:44:34;6.87;;;6.27;;
50126;SDS011;36024;47.974;16.398;2023-03-23T00:47:00;6.70;;;6.10;;
50126;SDS011;36024;47.974;16.398;2023-03-23T00:49:26;6.77;;;6.17;;
50126;SDS011;36024;47.974;16.398;2023-03-23T00:51:53;6.60;;;5.87;;
50126;SDS011;36024;47.974;16.398;2023-03-23T00:54:20;7.47;;;6.77;;
50126;SDS011;36024;47.974;16.398;2023-03-23T00:56:49;6.90;;;6.13;;
50126;SDS011;36024;47.974;16.398;2023-03-23T00:59:15;7.10;;;6.40;;
50126;SDS011;36024;47.974;16.398;2023-03-23T01:01:43;9.30;;;6.80;;
50126;SDS011;36024;47.974;16.398;2023-03-23T01:04:16;7.20;;;6.57;;
50126;SDS011;36024;47.974;16.398;2023-03-23T01:06:42;8.50;;;6.70;;
50126;SDS011;36024;47.974;16.398;2023-03-23T01:09:14;7.73;;;6.70;;
50126;SDS011;36024;47.974;16.398;2023-03-23T01:11:40;8.47;;;7.00;;
50126;SDS011;36024;47.974;16.398;2023-03-23T01:14:07;8.70;;;6.80;;
50126;SDS011;36024;47.974;16.398;2023-03-23T01:16:35;8.37;;;6.77;;
50126;SDS011;36024;47.974;16.398;2023-03-23T01:19:09;7.17;;;6.47;;
50126;SDS011;36024;47.974;16.398;2023-03-23T01:21:38;7.87;;;6.43;;
50126;SDS011;36024;47.974;16.398;2023-03-23T01:24:07;6.90;;;6.20;;
50126;SDS011;36024;47.974;16.398;2023-03-23T01:26:35;7.57;;;6.70;;
50126;SDS011;36024;47.974;16.398;2023-03-23T01:29:02;8.37;;;7.00;;
50126;SDS011;36024;47.974;16.398;2023-03-23T01:31:28;8.47;;;7.27;;
50126;SDS011;36024;47.974;16.398;2023-03-23T01:33:54;10.93;;;6.93;;
50126;SDS011;36024;47.974;16.398;2023-03-23T01:36:24;7.80;;;7.00;;
50126;SDS011;36024;47.974;16.398;2023-03-23T01:39:00;6.93;;;6.23;;
50126;SDS011;36024;47.974;16.398;2023-03-23T01:41:28;7.90;;;7.07;;
50126;SDS011;36024;47.974;16.398;2023-03-23T01:46:43;7.63;;;6.73;;
50126;SDS011;36024;47.974;16.398;2023-03-23T01:49:16;7.50;;;6.70;;
50126;SDS011;36024;47.974;16.398;2023-03-23T01:51:49;8.17;;;6.00;;
50126;SDS011;36024;47.974;16.398;2023-03-23T01:54:19;7.00;;;6.13;;
50126;SDS011;36024;47.974;16.398;2023-03-23T01:56:48;6.87;;;6.17;;
50126;SDS011;36024;47.974;16.398;2023-03-23T01:59:25;7.57;;;6.20;;
50126;SDS011;36024;47.974;16.398;2023-03-23T02:02:12;7.83;;;6.30;;
50126;SDS011;36024;47.974;16.398;2023-03-23T02:04:43;7.43;;;6.63;;
50126;SDS011;36024;47.974;16.398;2023-03-23T02:07:09;7.80;;;6.80;;
50126;SDS011;36024;47.974;16.398;2023-03-23T02:09:41;7.70;;;6.50;;
50126;SDS011;36024;47.974;16.398;2023-03-23T02:12:07;7.97;;;6.60;;
50126;SDS011;36024;47.974;16.398;2023-03-23T02:14:35;7.57;;;6.77;;
50126;SDS011;36024;47.974;16.398;2023-03-23T02:17:23;8.00;;;6.63;;
50126;SDS011;36024;47.974;16.398;2023-03-23T02:22:55;7.83;;;6.77;;
50126;SDS011;36024;47.974;16.398;2023-03-23T02:28:16;8.83;;;7.20;;
50126;SDS011;36024;47.974;16.398;2023-03-23T02:36:30;6.83;;;6.27;;
50126;SDS011;36024;47.974;16.398;2023-03-23T02:39:12;7.00;;;6.30;;
50126;SDS011;36024;47.974;16.398;2023-03-23T02:41:44;8.03;;;7.00;;
50126;SDS011;36024;47.974;16.398;2023-03-23T02:44:18;6.50;;;5.90;;
50126;SDS011;36024;47.974;16.398;2023-03-23T02:46:46;6.83;;;6.23;;
50126;SDS011;36024;47.974;16.398;2023-03-23T02:49:15;7.80;;;6.60;;
50126;SDS011;36024;47.974;16.398;2023-03-23T02:51:45;7.17;;;6.13;;
50126;SDS011;36024;47.974;16.398;2023-03-23T02:54:13;7.37;;;6.50;;
50126;SDS011;36024;47.974;16.398;2023-03-23T02:56:42;7.10;;;6.30;;
50126;SDS011;36024;47.974;16.398;2023-03-23T02:59:16;8.50;;;6.87;;
50126;SDS011;36024;47.974;16.398;2023-03-23T03:04:11;10.10;;;8.87;;
50126;SDS011;36024;47.974;16.398;2023-03-23T03:09:19;8.00;;;7.20;;
50126;SDS011;36024;47.974;16.398;2023-03-23T03:11:50;9.67;;;7.20;;
50126;SDS011;36024;47.974;16.398;2023-03-23T03:14:37;7.33;;;6.63;;
50126;SDS011;36024;47.974;16.398;2023-03-23T03:19:46;7.63;;;6.80;;
50126;SDS011;36024;47.974;16.398;2023-03-23T03:22:14;7.13;;;6.43;;
50126;SDS011;36024;47.974;16.398;2023-03-23T03:24:40;8.27;;;6.70;;
50126;SDS011;36024;47.974;16.398;2023-03-23T03:27:12;6.67;;;6.07;;
50126;SDS011;36024;47.974;16.398;2023-03-23T03:29:55;7.13;;;6.43;;
50126;SDS011;36024;47.974;16.398;2023-03-23T03:32:31;6.87;;;6.27;;
50126;SDS011;36024;47.974;16.398;2023-03-23T03:35:04;7.70;;;6.17;;
50126;SDS011;36024;47.974;16.398;2023-03-23T03:37:34;7.40;;;6.10;;
50126;SDS011;36024;47.974;16.398;2023-03-23T03:40:07;9.17;;;6.30;;
50126;SDS011;36024;47.974;16.398;2023-03-23T03:42:39;6.90;;;6.20;;
50126;SDS011;36024;47.974;16.398;2023-03-23T03:45:06;6.67;;;5.83;;
50126;SDS011;36024;47.974;16.398;2023-03-23T03:47:37;7.10;;;6.10;;
50126;SDS011;36024;47.974;16.398;2023-03-23T03:50:03;6.60;;;6.00;;
50126;SDS011;36024;47.974;16.398;2023-03-23T03:52:30;6.63;;;5.80;;
50126;SDS011;36024;47.974;16.398;2023-03-23T03:55:00;7.07;;;6.37;;
50126;SDS011;36024;47.974;16.398;2023-03-23T03:57:28;7.40;;;6.60;;
50126;SDS011;36024;47.974;16.398;2023-03-23T04:00:03;7.07;;;6.37;;
50126;SDS011;36024;47.974;16.398;2023-03-23T04:02:41;6.73;;;6.13;;
50126;SDS011;36024;47.974;16.398;2023-03-23T04:05:08;7.23;;;6.17;;
50126;SDS011;36024;47.974;16.398;2023-03-23T04:07:36;7.00;;;6.30;;
50126;SDS011;36024;47.974;16.398;2023-03-23T04:10:05;6.43;;;5.83;;
50126;SDS011;36024;47.974;16.398;2023-03-23T04:12:35;8.00;;;6.27;;
50126;SDS011;36024;47.974;16.398;2023-03-23T04:15:36;7.40;;;6.80;;
50126;SDS011;36024;47.974;16.398;2023-03-23T04:18:03;6.80;;;6.13;;
50126;SDS011;36024;47.974;16.398;2023-03-23T04:20:32;6.83;;;6.13;;
50126;SDS011;36024;47.974;16.398;2023-03-23T04:23:00;7.13;;;6.43;;
50126;SDS011;36024;47.974;16.398;2023-03-23T04:25:27;8.63;;;6.90;;
50126;SDS011;36024;47.974;16.398;2023-03-23T04:27:58;7.90;;;6.87;;
50126;SDS011;36024;47.974;16.398;2023-03-23T04:30:31;7.33;;;6.60;;
50126;SDS011;36024;47.974;16.398;2023-03-23T04:33:06;6.73;;;6.13;;
50126;SDS011;36024;47.974;16.398;2023-03-23T04:35:32;6.97;;;6.30;;
50126;SDS011;36024;47.974;16.398;2023-03-23T04:38:11;11.43;;;8.53;;
50126;SDS011;36024;47.974;16.398;2023-03-23T04:40:40;25.47;;;15.60;;
50126;SDS011;36024;47.974;16.398;2023-03-23T04:43:25;19.03;;;12.13;;
50126;SDS011;36024;47.974;16.398;2023-03-23T04:46:10;8.57;;;7.40;;
50126;SDS011;36024;47.974;16.398;2023-03-23T04:48:39;10.80;;;8.10;;
50126;SDS011;36024;47.974;16.398;2023-03-23T04:51:17;7.10;;;6.40;;
50126;SDS011;36024;47.974;16.398;2023-03-23T04:53:46;8.03;;;6.77;;
50126;SDS011;36024;47.974;16.398;2023-03-23T04:56:11;7.23;;;6.33;;
50126;SDS011;36024;47.974;16.398;2023-03-23T04:58:43;10.57;;;7.13;;
50126;SDS011;36024;47.974;16.398;2023-03-23T05:01:26;12.40;;;9.63;;
50126;SDS011;36024;47.974;16.398;2023-03-23T05:04:08;11.90;;;9.53;;
50126;SDS011;36024;47.974;16.398;2023-03-23T05:06:34;21.97;;;14.97;;
50126;SDS011;36024;47.974;16.398;2023-03-23T05:09:13;27.43;;;18.13;;
50126;SDS011;36024;47.974;16.398;2023-03-23T05:11:40;18.13;;;12.90;;
50126;SDS011;36024;47.974;16.398;2023-03-23T05:14:05;18.53;;;13.13;;
50126;SDS011;36024;47.974;16.398;2023-03-23T05:16:37;11.67;;;9.83;;
50126;SDS011;36024;47.974;16.398;2023-03-23T05:19:03;10.87;;;8.50;;
50126;SDS011;36024;47.974;16.398;2023-03-23T05:21:31;8.67;;;7.33;;
50126;SDS011;36024;47.974;16.398;2023-03-23T05:23:57;7.33;;;6.53;;
50126;SDS011;36024;47.974;16.398;2023-03-23T05:26:28;8.20;;;6.60;;
50126;SDS011;36024;47.974;16.398;2023-03-23T05:29:04;9.03;;;6.20;;
50126;SDS011;36024;47.974;16.398;2023-03-23T05:31:40;7.03;;;6.30;;
50126;SDS011;36024;47.974;16.398;2023-03-23T05:34:05;6.87;;;6.27;;
50126;SDS011;36024;47.974;16.398;2023-03-23T05:36:38;6.30;;;5.70;;
50126;SDS011;36024;47.974;16.398;2023-03-23T05:39:11;6.47;;;5.80;;
50126;SDS011;36024;47.974;16.398;2023-03-23T05:41:58;5.97;;;5.37;;
50126;SDS011;36024;47.974;16.398;2023-03-23T05:44:30;5.90;;;5.30;;
50126;SDS011;36024;47.974;16.398;2023-03-23T05:46:58;6.20;;;5.60;;
50126;SDS011;36024;47.974;16.398;2023-03-23T05:49:24;5.57;;;4.90;;
50126;SDS011;36024;47.974;16.398;2023-03-23T05:51:53;6.90;;;5.53;;
50126;SDS011;36024;47.974;16.398;2023-03-23T05:54:22;6.33;;;5.70;;
50126;SDS011;36024;47.974;16.398;2023-03-23T05:56:51;6.10;;;5.50;;
50126;SDS011;36024;47.974;16.398;2023-03-23T05:59:34;9.73;;;5.83;;
50126;SDS011;36024;47.974;16.398;2023-03-23T06:02:09;6.10;;;5.37;;
50126;SDS011;36024;47.974;16.398;2023-03-23T06:04:42;6.73;;;5.43;;
50126;SDS011;36024;47.974;16.398;2023-03-23T06:07:15;5.73;;;5.23;;
50126;SDS011;36024;47.974;16.398;2023-03-23T06:09:51;6.47;;;5.17;;
50126;SDS011;36024;47.974;16.398;2023-03-23T06:12:23;5.40;;;4.90;;
50126;SDS011;36024;47.974;16.398;2023-03-23T06:15:09;8.20;;;5.27;;
50126;SDS011;36024;47.974;16.398;2023-03-23T06:17:58;8.87;;;5.63;;
50126;SDS011;36024;47.974;16.398;2023-03-23T06:20:32;5.67;;;4.97;;
50126;SDS011;36024;47.974;16.398;2023-03-23T06:23:03;6.87;;;5.23;;
50126;SDS011;36024;47.974;16.398;2023-03-23T06:25:31;5.67;;;4.97;;
50126;SDS011;36024;47.974;16.398;2023-03-23T06:27:57;5.40;;;4.90;;
50126;SDS011;36024;47.974;16.398;2023-03-23T06:30:24;5.50;;;5.00;;
50126;SDS011;36024;47.974;16.398;2023-03-23T06:32:53;9.27;;;5.20;;
50126;SDS011;36024;47.974;16.398;2023-03-23T06:35:34;5.83;;;4.63;;
50126;SDS011;36024;47.974;16.398;2023-03-23T06:38:13;7.87;;;4.80;;
50126;SDS011;36024;47.974;16.398;2023-03-23T06:40:51;5.27;;;4.50;;
50126;SDS011;36024;47.974;16.398;2023-03-23T06:43:23;7.13;;;4.57;;
50126;SDS011;36024;47.974;16.398;2023-03-23T06:45:57;5.10;;;4.60;;
50126;SDS011;36024;47.974;16.398;2023-03-23T06:48:56;5.33;;;4.57;;
50126;SDS011;36024;47.974;16.398;2023-03-23T06:51:32;5.40;;;4.37;;
50126;SDS011;36024;47.974;16.398;2023-03-23T06:53:58;4.80;;;4.30;;
50126;SDS011;36024;47.974;16.398;2023-03-23T06:56:27;5.90;;;4.43;;
50126;SDS011;36024;47.974;16.398;2023-03-23T06:58:53;5.73;;;4.47;;
50126;SDS011;36024;47.974;16.398;2023-03-23T07:01:19;7.17;;;4.40;;
50126;SDS011;36024;47.974;16.398;2023-03-23T07:03:54;9.67;;;5.10;;
50126;SDS011;36024;47.974;16.398;2023-03-23T07:06:29;6.20;;;4.67;;
50126;SDS011;36024;47.974;16.398;2023-03-23T07:08:58;5.03;;;4.53;;
50126;SDS011;36024;47.974;16.398;2023-03-23T07:11:27;5.37;;;4.30;;
50126;SDS011;36024;47.974;16.398;2023-03-23T07:13:54;6.47;;;4.40;;
50126;SDS011;36024;47.974;16.398;2023-03-23T07:16:20;6.93;;;4.77;;
50126;SDS011;36024;47.974;16.398;2023-03-23T07:18:46;6.20;;;4.23;;
50126;SDS011;36024;47.974;16.398;2023-03-23T07:21:11;8.03;;;4.67;;
50126;SDS011;36024;47.974;16.398;2023-03-23T07:23:39;5.53;;;4.33;;
50126;SDS011;36024;47.974;16.398;2023-03-23T07:26:09;6.07;;;4.10;;
50126;SDS011;36024;47.974;16.398;2023-03-23T07:28:47;4.93;;;4.20;;
50126;SDS011;36024;47.974;16.398;2023-03-23T07:31:21;6.83;;;4.20;;
50126;SDS011;36024;47.974;16.398;2023-03-23T07:33:48;6.93;;;4.00;;
50126;SDS011;36024;47.974;16.398;2023-03-23T07:36:14;5.83;;;4.13;;
50126;SDS011;36024;47.974;16.398;2023-03-23T07:38:40;4.87;;;4.10;;
50126;SDS011;36024;47.974;16.398;2023-03-23T07:41:06;5.60;;;4.17;;
50126;SDS011;36024;47.974;16.398;2023-03-23T07:43:35;6.80;;;4.20;;
50126;SDS011;36024;47.974;16.398;2023-03-23T07:46:19;6.60;;;4.80;;
50126;SDS011;36024;47.974;16.398;2023-03-23T07:48:56;7.50;;;4.63;;
50126;SDS011;36024;47.974;16.398;2023-03-23T07:51:28;4.93;;;4.37;;
50126;SDS011;36024;47.974;16.398;2023-03-23T07:53:54;5.43;;;4.10;;
50126;SDS011;36024;47.974;16.398;2023-03-23T07:56:40;7.13;;;3.87;;
50126;SDS011;36024;47.974;16.398;2023-03-23T07:59:15;9.27;;;4.53;;
50126;SDS011;36024;47.974;16.398;2023-03-23T08:01:42;6.13;;;4.30;;
50126;SDS011;36024;47.974;16.398;2023-03-23T08:04:42;8.27;;;6.60;;
50126;SDS011;36024;47.974;16.398;2023-03-23T08:07:28;9.00;;;4.80;;
50126;SDS011;36024;47.974;16.398;2023-03-23T08:10:17;9.00;;;6.37;;
50126;SDS011;36024;47.974;16.398;2023-03-23T08:13:02;5.97;;;5.37;;
50126;SDS011;36024;47.974;16.398;2023-03-23T08:15:51;8.03;;;4.50;;
50126;SDS011;36024;47.974;16.398;2023-03-23T08:18:37;5.90;;;4.67;;
50126;SDS011;36024;47.974;16.398;2023-03-23T08:21:20;6.73;;;4.60;;
50126;SDS011;36024;47.974;16.398;2023-03-23T08:24:05;4.70;;;4.23;;
50126;SDS011;36024;47.974;16.398;2023-03-23T08:26:54;6.03;;;4.80;;
50126;SDS011;36024;47.974;16.398;2023-03-23T08:29:38;6.70;;;5.07;;
50126;SDS011;36024;47.974;16.398;2023-03-23T08:32:14;7.67;;;5.00;;
50126;SDS011;36024;47.974;16.398;2023-03-23T08:34:52;5.00;;;4.50;;
50126;SDS011;36024;47.974;16.398;2023-03-23T08:37:38;5.80;;;4.43;;
50126;SDS011;36024;47.974;16.398;2023-03-23T08:40:23;5.87;;;5.20;;
50126;SDS011;36024;47.974;16.398;2023-03-23T08:43:12;6.00;;;4.53;;
50126;SDS011;36024;47.974;16.398;2023-03-23T08:46:13;7.50;;;5.30;;
50126;SDS011;36024;47.974;16.398;2023-03-23T08:48:59;5.20;;;4.70;;
50126;SDS011;36024;47.974;16.398;2023-03-23T08:51:47;8.93;;;6.73;;
50126;SDS011;36024;47.974;16.398;2023-03-23T08:54:24;7.13;;;5.10;;
50126;SDS011;36024;47.974;16.398;2023-03-23T08:57:14;7.63;;;4.87;;
50126;SDS011;36024;47.974;16.398;2023-03-23T09:00:07;6.47;;;5.17;;
50126;SDS011;36024;47.974;16.398;2023-03-23T09:03:02;6.40;;;4.70;;
50126;SDS011;36024;47.974;16.398;2023-03-23T09:05:53;7.70;;;5.10;;
50126;SDS011;36024;47.974;16.398;2023-03-23T09:08:25;8.80;;;5.40;;
50126;SDS011;36024;47.974;16.398;2023-03-23T09:10:51;6.33;;;5.13;;
50126;SDS011;36024;47.974;16.398;2023-03-23T09:13:17;6.33;;;4.83;;
50126;SDS011;36024;47.974;16.398;2023-03-23T09:15:42;7.80;;;5.27;;
50126;SDS011;36024;47.974;16.398;2023-03-23T09:18:08;5.67;;;4.90;;
50126;SDS011;36024;47.974;16.398;2023-03-23T09:20:34;7.47;;;5.30;;
50126;SDS011;36024;47.974;16.398;2023-03-23T09:23:02;8.40;;;6.87;;
50126;SDS011;36024;47.974;16.398;2023-03-23T09:25:28;22.87;;;18.40;;
50126;SDS011;36024;47.974;16.398;2023-03-23T09:27:55;10.40;;;8.27;;
50126;SDS011;36024;47.974;16.398;2023-03-23T09:30:26;8.00;;;6.60;;
50126;SDS011;36024;47.974;16.398;2023-03-23T09:32:53;6.77;;;6.07;;
50126;SDS011;36024;47.974;16.398;2023-03-23T09:35:19;6.57;;;5.70;;
50126;SDS011;36024;47.974;16.398;2023-03-23T09:37:47;8.47;;;5.97;;
50126;SDS011;36024;47.974;16.398;2023-03-23T09:40:18;9.07;;;5.30;;
50126;SDS011;36024;47.974;16.398;2023-03-23T09:45:41;6.77;;;6.13;;
50126;SDS011;36024;47.974;16.398;2023-03-23T09:51:01;7.23;;;6.00;;
50126;SDS011;36024;47.974;16.398;2023-03-23T09:53:33;7.47;;;6.37;;
50126;SDS011;36024;47.974;16.398;2023-03-23T09:56:02;8.67;;;6.70;;
50126;SDS011;36024;47.974;16.398;2023-03-23T09:58:42;7.30;;;6.60;;
50126;SDS011;36024;47.974;16.398;2023-03-23T10:01:20;9.33;;;6.83;;
50126;SDS011;36024;47.974;16.398;2023-03-23T10:03:48;7.47;;;6.77;;
50126;SDS011;36024;47.974;16.398;2023-03-23T10:06:21;10.20;;;6.83;;
50126;SDS011;36024;47.974;16.398;2023-03-23T10:08:50;9.43;;;6.90;;
50126;SDS011;36024;47.974;16.398;2023-03-23T10:14:06;10.67;;;7.47;;
50126;SDS011;36024;47.974;16.398;2023-03-23T10:19:42;7.80;;;6.90;;
50126;SDS011;36024;47.974;16.398;2023-03-23T10:22:34;8.43;;;7.60;;
50126;SDS011;36024;47.974;16.398;2023-03-23T10:25:18;10.13;;;7.27;;
50126;SDS011;36024;47.974;16.398;2023-03-23T10:30:45;7.40;;;6.70;;
50126;SDS011;36024;47.974;16.398;2023-03-23T10:33:18;9.00;;;6.20;;
50126;SDS011;36024;47.974;16.398;2023-03-23T10:35:48;6.40;;;5.73;;
50126;SDS011;36024;47.974;16.398;2023-03-23T10:38:29;9.60;;;5.50;;
50126;SDS011;36024;47.974;16.398;2023-03-23T10:41:12;6.60;;;5.97;;
50126;SDS011;36024;47.974;16.398;2023-03-23T10:43:43;6.73;;;5.77;;
50126;SDS011;36024;47.974;16.398;2023-03-23T10:46:14;6.27;;;5.67;;
50126;SDS011;36024;47.974;16.398;2023-03-23T10:48:43;6.93;;;6.33;;
50126;SDS011;36024;47.974;16.398;2023-03-23T10:51:10;6.63;;;5.73;;
50126;SDS011;36024;47.974;16.398;2023-03-23T10:53:39;6.53;;;5.93;;
50126;SDS011;36024;47.974;16.398;2023-03-23T10:58:52;6.43;;;5.07;;
50126;SDS011;36024;47.974;16.398;2023-03-23T11:01:19;5.90;;;5.30;;
50126;SDS011;36024;47.974;16.398;2023-03-23T11:03:53;5.17;;;4.77;;
50126;SDS011;36024;47.974;16.398;2023-03-23T11:06:20;8.63;;;5.00;;
50126;SDS011;36024;47.974;16.398;2023-03-23T11:08:49;7.83;;;5.43;;
50126;SDS011;36024;47.974;16.398;2023-03-23T11:13:47;5.90;;;5.23;;
50126;SDS011;36024;47.974;16.398;2023-03-23T11:16:24;5.40;;;4.90;;
50126;SDS011;36024;47.974;16.398;2023-03-23T11:19:11;5.13;;;4.67;;
50126;SDS011;36024;47.974;16.398;2023-03-23T11:21:40;4.93;;;4.47;;
50126;SDS011;36024;47.974;16.398;2023-03-23T11:24:12;6.57;;;5.67;;
50126;SDS011;36024;47.974;16.398;2023-03-23T11:26:38;6.30;;;5.70;;
50126;SDS011;36024;47.974;16.398;2023-03-23T11:31:40;5.37;;;4.60;;
50126;SDS011;36024;47.974;16.398;2023-03-23T11:34:16;6.90;;;5.00;;
50126;SDS011;36024;47.974;16.398;2023-03-23T11:36:47;6.40;;;5.80;;
50126;SDS011;36024;47.974;16.398;2023-03-23T11:39:27;5.55;;;4.97;;
50126;SDS011;36024;47.974;16.398;2023-03-23T11:41:55;6.40;;;5.00;;
50126;SDS011;36024;47.974;16.398;2023-03-23T11:44:23;8.05;;;5.60;;
50126;SDS011;36024;47.974;16.398;2023-03-23T11:47:04;6.00;;;5.40;;
50126;SDS011;36024;47.974;16.398;2023-03-23T11:50:10;6.38;;;5.20;;
50126;SDS011;36024;47.974;16.398;2023-03-23T11:58:04;6.05;;;4.82;;
50126;SDS011;36024;47.974;16.398;2023-03-23T12:00:35;5.10;;;4.50;;
50126;SDS011;36024;47.974;16.398;2023-03-23T12:03:08;4.53;;;3.90;;
50126;SDS011;36024;47.974;16.398;2023-03-23T12:21:52;5.75;;;3.85;;
50126;SDS011;36024;47.974;16.398;2023-03-23T12:24:25;4.30;;;3.90;;
50126;SDS011;36024;47.974;16.398;2023-03-23T12:26:56;4.32;;;3.85;;
50126;SDS011;36024;47.974;16.398;2023-03-23T12:47:50;3.30;;;3.00;;
50126;SDS011;36024;47.974;16.398;2023-03-23T12:50:23;4.43;;;3.10;;
50126;SDS011;36024;47.974;16.398;2023-03-23T12:52:59;4.90;;;3.75;;
50126;SDS011;36024;47.974;16.398;2023-03-23T12:55:38;3.20;;;2.92;;
50126;SDS011;36024;47.974;16.398;2023-03-23T12:58:12;3.42;;;2.78;;
50126;SDS011;36024;47.974;16.398;2023-03-23T13:00:58;2.90;;;2.70;;
50126;SDS011;36024;47.974;16.398;2023-03-23T13:03:39;4.95;;;2.90;;
50126;SDS011;36024;47.974;16.398;2023-03-23T13:06:15;3.85;;;2.70;;
50126;SDS011;36024;47.974;16.398;2023-03-23T13:11:36;4.70;;;3.40;;
50126;SDS011;36024;47.974;16.398;2023-03-23T13:14:08;3.53;;;3.22;;
50126;SDS011;36024;47.974;16.398;2023-03-23T13:22:49;5.10;;;4.07;;
50126;SDS011;36024;47.974;16.398;2023-03-23T13:28:05;4.90;;;4.55;;
50126;SDS011;36024;47.974;16.398;2023-03-23T13:30:30;5.40;;;4.90;;
50126;SDS011;36024;47.974;16.398;2023-03-23T13:33:06;4.93;;;4.53;;
50126;SDS011;36024;47.974;16.398;2023-03-23T13:35:36;6.15;;;4.30;;
50126;SDS011;36024;47.974;16.398;2023-03-23T13:38:25;4.90;;;4.50;;
50126;SDS011;36024;47.974;16.398;2023-03-23T13:40:50;4.53;;;3.67;;
50126;SDS011;36024;47.974;16.398;2023-03-23T13:43:30;5.80;;;4.43;;
50126;SDS011;36024;47.974;16.398;2023-03-23T13:46:25;5.70;;;4.70;;
50126;SDS011;36024;47.974;16.398;2023-03-23T13:49:03;4.75;;;3.92;;
50126;SDS011;36024;47.974;16.398;2023-03-23T13:52:22;3.75;;;3.28;;
50126;SDS011;36024;47.974;16.398;2023-03-23T13:54:30;4.13;;;3.75;;
50126;SDS011;36024;47.974;16.398;2023-03-23T13:57:18;6.65;;;4.10;;
50126;SDS011;36024;47.974;16.398;2023-03-23T14:00:24;4.38;;;3.97;;
50126;SDS011;36024;47.974;16.398;2023-03-23T14:02:50;3.75;;;3.35;;
50126;SDS011;36024;47.974;16.398;2023-03-23T14:07:55;4.30;;;3.20;;
50126;SDS011;36024;47.974;16.398;2023-03-23T14:10:25;5.50;;;3.40;;
50126;SDS011;36024;47.974;16.398;2023-03-23T14:12:57;3.50;;;3.20;;
50126;SDS011;36024;47.974;16.398;2023-03-23T14:15:29;4.40;;;4.00;;
50126;SDS011;36024;47.974;16.398;2023-03-23T14:17:55;7.93;;;3.38;;
50126;SDS011;36024;47.974;16.398;2023-03-23T14:20:32;3.97;;;3.50;;
50126;SDS011;36024;47.974;16.398;2023-03-23T14:22:59;5.20;;;3.78;;
50126;SDS011;36024;47.974;16.398;2023-03-23T14:25:31;4.55;;;3.83;;
50126;SDS011;36024;47.974;16.398;2023-03-23T14:27:57;4.10;;;3.58;;
50126;SDS011;36024;47.974;16.398;2023-03-23T14:30:25;4.18;;;3.80;;
50126;SDS011;36024;47.974;16.398;2023-03-23T14:32:52;5.68;;;3.70;;
50126;SDS011;36024;47.974;16.398;2023-03-23T14:35:23;4.32;;;3.53;;
50126;SDS011;36024;47.974;16.398;2023-03-23T14:37:54;3.70;;;3.40;;
50126;SDS011;36024;47.974;16.398;2023-03-23T14:40:20;3.53;;;3.22;;
50126;SDS011;36024;47.974;16.398;2023-03-23T14:42:46;4.00;;;3.67;;
50126;SDS011;36024;47.974;16.398;2023-03-23T14:45:19;5.22;;;3.63;;
50126;SDS011;36024;47.974;16.398;2023-03-23T14:47:47;4.47;;;4.07;;
50126;SDS011;36024;47.974;16.398;2023-03-23T14:50:23;4.20;;;3.83;;
50126;SDS011;36024;47.974;16.398;2023-03-23T14:52:51;4.75;;;3.90;;
50126;SDS011;36024;47.974;16.398;2023-03-23T14:55:18;4.30;;;3.97;;
50126;SDS011;36024;47.974;16.398;2023-03-23T14:57:46;4.65;;;4.10;;
50126;SDS011;36024;47.974;16.398;2023-03-23T15:00:17;4.97;;;4.57;;
50126;SDS011;36024;47.974;16.398;2023-03-23T15:02:48;6.03;;;4.88;;
50126;SDS011;36024;47.974;16.398;2023-03-23T15:05:18;6.68;;;5.30;;
50126;SDS011;36024;47.974;16.398;2023-03-23T15:07:46;5.93;;;5.05;;
50126;SDS011;36024;47.974;16.398;2023-03-23T15:10:17;5.13;;;4.60;;
50126;SDS011;36024;47.974;16.398;2023-03-23T15:12:44;6.93;;;5.32;;
50126;SDS011;36024;47.974;16.398;2023-03-23T15:15:18;6.53;;;5.40;;
50126;SDS011;36024;47.974;16.398;2023-03-23T15:17:46;7.93;;;5.50;;
50126;SDS011;36024;47.974;16.398;2023-03-23T15:20:20;6.65;;;5.30;;
50126;SDS011;36024;47.974;16.398;2023-03-23T15:22:51;6.43;;;5.10;;
50126;SDS011;36024;47.974;16.398;2023-03-23T15:25:21;6.28;;;5.43;;
50126;SDS011;36024;47.974;16.398;2023-03-23T15:32:53;6.45;;;5.35;;
50126;SDS011;36024;47.974;16.398;2023-03-23T15:35:23;5.72;;;5.22;;
50126;SDS011;36024;47.974;16.398;2023-03-23T15:37:58;7.38;;;6.63;;
50126;SDS011;36024;47.974;16.398;2023-03-23T15:40:26;6.88;;;5.78;;
50126;SDS011;36024;47.974;16.398;2023-03-23T15:46:00;6.88;;;5.43;;
50126;SDS011;36024;47.974;16.398;2023-03-23T15:48:30;5.93;;;5.32;;
50126;SDS011;36024;47.974;16.398;2023-03-23T15:50:57;6.25;;;5.00;;
50126;SDS011;36024;47.974;16.398;2023-03-23T15:53:26;5.95;;;5.07;;
50126;SDS011;36024;47.974;16.398;2023-03-23T15:55:53;7.03;;;5.75;;
50126;SDS011;36024;47.974;16.398;2023-03-23T15:58:19;7.40;;;5.75;;
50126;SDS011;36024;47.974;16.398;2023-03-23T16:00:46;8.60;;;6.20;;
50126;SDS011;36024;47.974;16.398;2023-03-23T16:03:19;6.85;;;5.75;;
50126;SDS011;36024;47.974;16.398;2023-03-23T16:05:50;6.63;;;6.03;;
50126;SDS011;36024;47.974;16.398;2023-03-23T16:08:17;6.05;;;5.47;;
50126;SDS011;36024;47.974;16.398;2023-03-23T16:10:44;7.22;;;5.22;;
50126;SDS011;36024;47.974;16.398;2023-03-23T16:13:11;7.82;;;5.75;;
50126;SDS011;36024;47.974;16.398;2023-03-23T16:15:38;7.03;;;5.68;;
50126;SDS011;36024;47.974;16.398;2023-03-23T16:18:05;8.52;;;5.75;;
50126;SDS011;36024;47.974;16.398;2023-03-23T16:20:31;7.05;;;6.43;;
50126;SDS011;36024;47.974;16.398;2023-03-23T16:22:58;9.00;;;6.88;;
50126;SDS011;36024;47.974;16.398;2023-03-23T16:25:26;6.65;;;6.05;;
50126;SDS011;36024;47.974;16.398;2023-03-23T16:27:53;6.68;;;6.00;;
50126;SDS011;36024;47.974;16.398;2023-03-23T16:30:23;7.03;;;5.60;;
50126;SDS011;36024;47.974;16.398;2023-03-23T16:32:51;7.65;;;6.00;;
50126;SDS011;36024;47.974;16.398;2023-03-23T16:35:22;7.00;;;6.38;;
50126;SDS011;36024;47.974;16.398;2023-03-23T16:37:50;10.05;;;9.00;;
50126;SDS011;36024;47.974;16.398;2023-03-23T16:40:34;9.15;;;8.13;;
50126;SDS011;36024;47.974;16.398;2023-03-23T16:43:04;8.02;;;7.13;;
50126;SDS011;36024;47.974;16.398;2023-03-23T16:45:35;7.55;;;6.85;;
50126;SDS011;36024;47.974;16.398;2023-03-23T16:48:03;8.63;;;6.50;;
50126;SDS011;36024;47.974;16.398;2023-03-23T16:50:31;6.90;;;5.90;;
50126;SDS011;36024;47.974;16.398;2023-03-23T16:52:58;7.68;;;6.68;;